sensor_id;sensor_type;location;lat;lon;timestamp;temperature;humidity
11140;DHT22;5624;49.388;11.350;2023-04-09T00:01:08;5.10;89.30
11140;DHT22;5624;49.388;11.350;2023-04-09T00:03:35;5.10;89.30
11140;DHT22;5624;49.388;11.350;2023-04-09T00:06:01;5.00;90.00
11140;DHT22;5624;49.388;11.350;2023-04-09T00:08:27;5.00;90.10
11140;DHT22;5624;49.388;11.350;2023-04-09T00:10:52;5.00;90.70
11140;DHT22;5624;49.388;11.350;2023-04-09T00:13:18;4.90;90.40
11140;DHT22;5624;49.388;11.350;2023-04-09T00:15:45;4.90;91.00
11140;DHT22;5624;49.388;11.350;2023-04-09T00:18:11;4.80;92.00
11140;DHT22;5624;49.388;11.350;2023-04-09T00:20:37;4.80;92.50
11140;DHT22;5624;49.388;11.350;2023-04-09T00:23:02;4.90;91.60
11140;DHT22;5624;49.388;11.350;2023-04-09T00:25:28;4.90;91.40
11140;DHT22;5624;49.388;11.350;2023-04-09T00:27:54;5.00;91.40
11140;DHT22;5624;49.388;11.350;2023-04-09T00:30:20;4.90;91.70
11140;DHT22;5624;49.388;11.350;2023-04-09T00:32:46;4.80;91.80
11140;DHT22;5624;49.388;11.350;2023-04-09T00:35:11;4.60;93.30
11140;DHT22;5624;49.388;11.350;2023-04-09T00:37:37;4.50;93.80
11140;DHT22;5624;49.388;11.350;2023-04-09T00:40:03;4.40;94.80
11140;DHT22;5624;49.388;11.350;2023-04-09T00:42:31;4.30;95.60
11140;DHT22;5624;49.388;11.350;2023-04-09T00:44:57;4.30;96.60
11140;DHT22;5624;49.388;11.350;2023-04-09T00:47:23;4.20;97.10
11140;DHT22;5624;49.388;11.350;2023-04-09T00:49:48;4.20;97.30
11140;DHT22;5624;49.388;11.350;2023-04-09T00:52:14;4.20;97.20
11140;DHT22;5624;49.388;11.350;2023-04-09T00:54:40;4.20;97.30
11140;DHT22;5624;49.388;11.350;2023-04-09T00:57:05;4.20;97.30
11140;DHT22;5624;49.388;11.350;2023-04-09T00:59:31;4.20;97.20
11140;DHT22;5624;49.388;11.350;2023-04-09T01:01:57;4.20;97.30
11140;DHT22;5624;49.388;11.350;2023-04-09T01:04:23;4.20;97.80
11140;DHT22;5624;49.388;11.350;2023-04-09T01:07:09;4.20;98.00
11140;DHT22;5624;49.388;11.350;2023-04-09T01:09:40;4.10;98.10
11140;DHT22;5624;49.388;11.350;2023-04-09T01:12:27;4.10;98.30
11140;DHT22;5624;49.388;11.350;2023-04-09T01:15:07;4.10;98.30
11140;DHT22;5624;49.388;11.350;2023-04-09T01:17:42;4.10;98.70
11140;DHT22;5624;49.388;11.350;2023-04-09T01:20:21;4.00;98.50
11140;DHT22;5624;49.388;11.350;2023-04-09T01:23:02;4.00;98.20
11140;DHT22;5624;49.388;11.350;2023-04-09T01:25:36;3.90;98.40
11140;DHT22;5624;49.388;11.350;2023-04-09T01:28:20;4.00;98.80
11140;DHT22;5624;49.388;11.350;2023-04-09T01:30:56;4.10;98.00
11140;DHT22;5624;49.388;11.350;2023-04-09T01:33:23;4.20;97.30
11140;DHT22;5624;49.388;11.350;2023-04-09T01:35:50;4.20;96.80
11140;DHT22;5624;49.388;11.350;2023-04-09T01:38:19;4.30;95.70
11140;DHT22;5624;49.388;11.350;2023-04-09T01:40:46;4.30;94.90
11140;DHT22;5624;49.388;11.350;2023-04-09T01:43:13;4.30;94.80
11140;DHT22;5624;49.388;11.350;2023-04-09T01:45:40;4.20;94.70
11140;DHT22;5624;49.388;11.350;2023-04-09T01:48:06;4.10;94.80
11140;DHT22;5624;49.388;11.350;2023-04-09T01:50:32;4.00;95.90
11140;DHT22;5624;49.388;11.350;2023-04-09T01:52:59;3.90;96.10
11140;DHT22;5624;49.388;11.350;2023-04-09T01:55:26;3.90;96.60
11140;DHT22;5624;49.388;11.350;2023-04-09T01:57:51;3.90;97.00
11140;DHT22;5624;49.388;11.350;2023-04-09T02:00:17;3.80;97.10
11140;DHT22;5624;49.388;11.350;2023-04-09T02:05:18;3.70;97.50
11140;DHT22;5624;49.388;11.350;2023-04-09T02:07:46;3.70;97.70
11140;DHT22;5624;49.388;11.350;2023-04-09T02:10:13;3.60;98.00
11140;DHT22;5624;49.388;11.350;2023-04-09T02:12:46;3.50;97.60
11140;DHT22;5624;49.388;11.350;2023-04-09T02:15:12;3.40;98.20
11140;DHT22;5624;49.388;11.350;2023-04-09T02:17:39;3.30;98.10
11140;DHT22;5624;49.388;11.350;2023-04-09T02:20:05;3.10;98.60
11140;DHT22;5624;49.388;11.350;2023-04-09T02:22:31;3.00;98.80
11140;DHT22;5624;49.388;11.350;2023-04-09T02:24:57;2.90;99.30
11140;DHT22;5624;49.388;11.350;2023-04-09T02:27:22;2.70;99.40
11140;DHT22;5624;49.388;11.350;2023-04-09T02:29:49;2.50;99.40
11140;DHT22;5624;49.388;11.350;2023-04-09T02:32:15;2.40;99.80
11140;DHT22;5624;49.388;11.350;2023-04-09T02:34:40;2.30;99.90
11140;DHT22;5624;49.388;11.350;2023-04-09T02:37:06;2.20;99.90
11140;DHT22;5624;49.388;11.350;2023-04-09T02:39:32;2.10;99.90
11140;DHT22;5624;49.388;11.350;2023-04-09T02:41:57;2.10;99.90
11140;DHT22;5624;49.388;11.350;2023-04-09T02:44:23;2.20;99.90
11140;DHT22;5624;49.388;11.350;2023-04-09T02:46:50;2.20;99.90
11140;DHT22;5624;49.388;11.350;2023-04-09T02:49:15;2.30;99.90
11140;DHT22;5624;49.388;11.350;2023-04-09T02:51:41;2.30;99.90
11140;DHT22;5624;49.388;11.350;2023-04-09T02:54:07;2.20;99.90
11140;DHT22;5624;49.388;11.350;2023-04-09T02:56:32;2.30;99.90
11140;DHT22;5624;49.388;11.350;2023-04-09T02:58:58;2.20;99.90
11140;DHT22;5624;49.388;11.350;2023-04-09T03:01:23;2.00;99.90
11140;DHT22;5624;49.388;11.350;2023-04-09T03:03:49;1.90;99.90
11140;DHT22;5624;49.388;11.350;2023-04-09T03:06:15;1.90;99.90
11140;DHT22;5624;49.388;11.350;2023-04-09T03:08:41;1.80;99.90
11140;DHT22;5624;49.388;11.350;2023-04-09T03:11:06;1.70;99.90
11140;DHT22;5624;49.388;11.350;2023-04-09T03:13:32;1.60;99.90
11140;DHT22;5624;49.388;11.350;2023-04-09T03:15:57;1.60;99.90
11140;DHT22;5624;49.388;11.350;2023-04-09T03:18:23;1.60;99.90
11140;DHT22;5624;49.388;11.350;2023-04-09T03:20:48;1.80;99.90
11140;DHT22;5624;49.388;11.350;2023-04-09T03:23:14;2.00;99.90
11140;DHT22;5624;49.388;11.350;2023-04-09T03:25:39;2.00;99.90
11140;DHT22;5624;49.388;11.350;2023-04-09T03:28:05;2.00;99.90
11140;DHT22;5624;49.388;11.350;2023-04-09T03:30:31;1.90;99.90
11140;DHT22;5624;49.388;11.350;2023-04-09T03:32:56;2.10;99.90
11140;DHT22;5624;49.388;11.350;2023-04-09T03:35:23;2.20;99.90
11140;DHT22;5624;49.388;11.350;2023-04-09T03:37:50;2.30;99.90
11140;DHT22;5624;49.388;11.350;2023-04-09T03:40:15;2.40;99.90
11140;DHT22;5624;49.388;11.350;2023-04-09T03:42:42;2.30;99.90
11140;DHT22;5624;49.388;11.350;2023-04-09T03:45:07;2.30;99.90
11140;DHT22;5624;49.388;11.350;2023-04-09T03:47:33;2.20;99.90
11140;DHT22;5624;49.388;11.350;2023-04-09T03:49:59;2.10;99.90
11140;DHT22;5624;49.388;11.350;2023-04-09T03:52:24;2.10;99.90
11140;DHT22;5624;49.388;11.350;2023-04-09T03:54:50;2.10;99.90
11140;DHT22;5624;49.388;11.350;2023-04-09T03:57:15;2.20;99.90
11140;DHT22;5624;49.388;11.350;2023-04-09T03:59:41;2.20;99.90
11140;DHT22;5624;49.388;11.350;2023-04-09T04:02:06;2.20;99.90
11140;DHT22;5624;49.388;11.350;2023-04-09T04:04:32;2.20;99.90
11140;DHT22;5624;49.388;11.350;2023-04-09T04:06:58;2.10;99.90
11140;DHT22;5624;49.388;11.350;2023-04-09T04:09:23;2.00;99.90
11140;DHT22;5624;49.388;11.350;2023-04-09T04:11:49;2.00;99.90
11140;DHT22;5624;49.388;11.350;2023-04-09T04:14:14;2.00;99.90
11140;DHT22;5624;49.388;11.350;2023-04-09T04:16:40;2.00;99.90
11140;DHT22;5624;49.388;11.350;2023-04-09T04:19:06;1.90;99.90
11140;DHT22;5624;49.388;11.350;2023-04-09T04:21:31;2.00;99.90
11140;DHT22;5624;49.388;11.350;2023-04-09T04:23:57;2.00;99.90
11140;DHT22;5624;49.388;11.350;2023-04-09T04:26:23;2.10;99.90
11140;DHT22;5624;49.388;11.350;2023-04-09T04:28:48;2.10;99.90
11140;DHT22;5624;49.388;11.350;2023-04-09T04:31:14;2.00;99.90
11140;DHT22;5624;49.388;11.350;2023-04-09T04:33:40;2.00;99.90
11140;DHT22;5624;49.388;11.350;2023-04-09T04:36:11;1.90;99.90
11140;DHT22;5624;49.388;11.350;2023-04-09T04:38:37;1.90;99.90
11140;DHT22;5624;49.388;11.350;2023-04-09T04:41:03;1.90;99.90
11140;DHT22;5624;49.388;11.350;2023-04-09T04:43:29;1.80;99.90
11140;DHT22;5624;49.388;11.350;2023-04-09T04:45:55;1.80;99.90
11140;DHT22;5624;49.388;11.350;2023-04-09T04:48:21;1.70;99.90
11140;DHT22;5624;49.388;11.350;2023-04-09T04:50:54;1.70;99.90
11140;DHT22;5624;49.388;11.350;2023-04-09T04:53:20;1.80;99.90
11140;DHT22;5624;49.388;11.350;2023-04-09T04:55:46;1.80;99.90
11140;DHT22;5624;49.388;11.350;2023-04-09T04:58:11;1.80;99.90
11140;DHT22;5624;49.388;11.350;2023-04-09T05:00:37;1.80;99.90
11140;DHT22;5624;49.388;11.350;2023-04-09T05:03:03;1.80;99.90
11140;DHT22;5624;49.388;11.350;2023-04-09T05:05:28;1.90;99.90
11140;DHT22;5624;49.388;11.350;2023-04-09T05:07:54;2.10;99.90
11140;DHT22;5624;49.388;11.350;2023-04-09T05:10:19;2.40;99.90
11140;DHT22;5624;49.388;11.350;2023-04-09T05:12:45;2.80;99.80
11140;DHT22;5624;49.388;11.350;2023-04-09T05:15:11;3.20;98.30
11140;DHT22;5624;49.388;11.350;2023-04-09T05:17:36;3.50;96.40
11140;DHT22;5624;49.388;11.350;2023-04-09T05:20:02;3.80;95.00
11140;DHT22;5624;49.388;11.350;2023-04-09T05:22:28;3.90;93.50
11140;DHT22;5624;49.388;11.350;2023-04-09T05:24:53;4.10;92.30
11140;DHT22;5624;49.388;11.350;2023-04-09T05:27:19;4.20;91.40
11140;DHT22;5624;49.388;11.350;2023-04-09T05:29:46;4.20;90.20
11140;DHT22;5624;49.388;11.350;2023-04-09T05:32:12;4.30;89.70
11140;DHT22;5624;49.388;11.350;2023-04-09T05:34:37;4.40;88.80
11140;DHT22;5624;49.388;11.350;2023-04-09T05:37:03;4.50;88.60
11140;DHT22;5624;49.388;11.350;2023-04-09T05:39:28;4.60;88.00
11140;DHT22;5624;49.388;11.350;2023-04-09T05:41:54;4.60;87.70
11140;DHT22;5624;49.388;11.350;2023-04-09T05:44:20;4.70;87.20
11140;DHT22;5624;49.388;11.350;2023-04-09T05:46:46;4.80;86.30
11140;DHT22;5624;49.388;11.350;2023-04-09T05:49:11;4.90;84.90
11140;DHT22;5624;49.388;11.350;2023-04-09T05:51:37;5.00;83.40
11140;DHT22;5624;49.388;11.350;2023-04-09T05:54:02;5.00;84.10
11140;DHT22;5624;49.388;11.350;2023-04-09T05:56:28;5.00;84.10
11140;DHT22;5624;49.388;11.350;2023-04-09T05:58:54;5.10;84.10
11140;DHT22;5624;49.388;11.350;2023-04-09T06:01:19;5.60;81.80
11140;DHT22;5624;49.388;11.350;2023-04-09T06:03:45;5.80;80.90
11140;DHT22;5624;49.388;11.350;2023-04-09T06:06:12;5.80;80.50
11140;DHT22;5624;49.388;11.350;2023-04-09T06:08:37;5.80;80.80
11140;DHT22;5624;49.388;11.350;2023-04-09T06:11:05;5.90;80.80
11140;DHT22;5624;49.388;11.350;2023-04-09T06:13:33;5.90;79.40
11140;DHT22;5624;49.388;11.350;2023-04-09T06:15:58;6.00;80.40
11140;DHT22;5624;49.388;11.350;2023-04-09T06:18:24;6.20;79.60
11140;DHT22;5624;49.388;11.350;2023-04-09T06:20:49;6.50;77.20
11140;DHT22;5624;49.388;11.350;2023-04-09T06:23:15;6.80;77.10
11140;DHT22;5624;49.388;11.350;2023-04-09T06:25:41;7.40;74.70
11140;DHT22;5624;49.388;11.350;2023-04-09T06:28:06;7.50;72.80
11140;DHT22;5624;49.388;11.350;2023-04-09T06:30:32;7.60;72.80
11140;DHT22;5624;49.388;11.350;2023-04-09T06:32:57;7.60;71.50
11140;DHT22;5624;49.388;11.350;2023-04-09T06:35:23;7.70;72.30
11140;DHT22;5624;49.388;11.350;2023-04-09T06:37:48;7.40;74.80
11140;DHT22;5624;49.388;11.350;2023-04-09T06:40:14;7.50;73.50
11140;DHT22;5624;49.388;11.350;2023-04-09T06:42:40;7.60;72.70
11140;DHT22;5624;49.388;11.350;2023-04-09T06:45:06;7.80;72.60
11140;DHT22;5624;49.388;11.350;2023-04-09T06:47:33;8.10;72.10
11140;DHT22;5624;49.388;11.350;2023-04-09T06:49:59;8.60;69.70
11140;DHT22;5624;49.388;11.350;2023-04-09T06:52:25;9.10;69.00
11140;DHT22;5624;49.388;11.350;2023-04-09T06:54:51;9.40;67.90
11140;DHT22;5624;49.388;11.350;2023-04-09T06:57:16;10.30;65.50
11140;DHT22;5624;49.388;11.350;2023-04-09T06:59:42;10.50;62.10
11140;DHT22;5624;49.388;11.350;2023-04-09T07:02:08;11.00;61.10
11140;DHT22;5624;49.388;11.350;2023-04-09T07:04:33;11.30;60.00
11140;DHT22;5624;49.388;11.350;2023-04-09T07:06:59;11.50;58.20
11140;DHT22;5624;49.388;11.350;2023-04-09T07:09:25;11.50;59.00
11140;DHT22;5624;49.388;11.350;2023-04-09T07:11:51;11.70;57.60
11140;DHT22;5624;49.388;11.350;2023-04-09T07:14:16;11.50;58.10
11140;DHT22;5624;49.388;11.350;2023-04-09T07:16:42;11.10;59.70
11140;DHT22;5624;49.388;11.350;2023-04-09T07:19:10;10.70;60.50
11140;DHT22;5624;49.388;11.350;2023-04-09T07:21:36;10.80;59.30
11140;DHT22;5624;49.388;11.350;2023-04-09T07:24:02;10.90;59.90
11140;DHT22;5624;49.388;11.350;2023-04-09T07:26:28;11.50;62.10
11140;DHT22;5624;49.388;11.350;2023-04-09T07:28:54;12.50;55.60
11140;DHT22;5624;49.388;11.350;2023-04-09T07:31:20;12.90;55.20
11140;DHT22;5624;49.388;11.350;2023-04-09T07:33:46;13.00;54.00
11140;DHT22;5624;49.388;11.350;2023-04-09T07:36:12;13.20;53.60
11140;DHT22;5624;49.388;11.350;2023-04-09T07:38:38;12.80;52.20
11140;DHT22;5624;49.388;11.350;2023-04-09T07:41:03;12.30;54.70
11140;DHT22;5624;49.388;11.350;2023-04-09T07:43:30;12.70;53.90
11140;DHT22;5624;49.388;11.350;2023-04-09T07:45:56;13.10;52.30
11140;DHT22;5624;49.388;11.350;2023-04-09T07:48:22;13.60;52.00
11140;DHT22;5624;49.388;11.350;2023-04-09T07:50:47;14.30;49.90
11140;DHT22;5624;49.388;11.350;2023-04-09T07:53:13;15.10;47.80
11140;DHT22;5624;49.388;11.350;2023-04-09T07:55:39;15.30;50.30
11140;DHT22;5624;49.388;11.350;2023-04-09T07:58:05;15.60;47.40
11140;DHT22;5624;49.388;11.350;2023-04-09T08:00:31;15.80;44.70
11140;DHT22;5624;49.388;11.350;2023-04-09T08:02:57;16.10;46.50
11140;DHT22;5624;49.388;11.350;2023-04-09T08:05:23;16.40;45.10
11140;DHT22;5624;49.388;11.350;2023-04-09T08:07:52;16.50;43.40
11140;DHT22;5624;49.388;11.350;2023-04-09T08:10:18;15.50;44.00
11140;DHT22;5624;49.388;11.350;2023-04-09T08:12:43;15.60;43.30
11140;DHT22;5624;49.388;11.350;2023-04-09T08:15:09;15.90;45.00
11140;DHT22;5624;49.388;11.350;2023-04-09T08:17:35;16.40;45.70
11140;DHT22;5624;49.388;11.350;2023-04-09T08:20:04;15.60;45.40
11140;DHT22;5624;49.388;11.350;2023-04-09T08:22:30;15.90;42.30
11140;DHT22;5624;49.388;11.350;2023-04-09T08:24:56;16.20;40.40
11140;DHT22;5624;49.388;11.350;2023-04-09T08:27:23;15.40;40.70
11140;DHT22;5624;49.388;11.350;2023-04-09T08:29:49;14.50;42.90
11140;DHT22;5624;49.388;11.350;2023-04-09T08:32:14;13.40;45.30
11140;DHT22;5624;49.388;11.350;2023-04-09T08:34:40;12.40;47.70
11140;DHT22;5624;49.388;11.350;2023-04-09T08:37:06;11.60;50.60
11140;DHT22;5624;49.388;11.350;2023-04-09T08:39:32;11.40;51.60
11140;DHT22;5624;49.388;11.350;2023-04-09T08:41:58;11.70;51.40
11140;DHT22;5624;49.388;11.350;2023-04-09T08:44:27;12.10;49.90
11140;DHT22;5624;49.388;11.350;2023-04-09T08:46:53;12.00;47.50
11140;DHT22;5624;49.388;11.350;2023-04-09T08:49:20;11.60;50.00
11140;DHT22;5624;49.388;11.350;2023-04-09T08:51:47;11.10;50.00
11140;DHT22;5624;49.388;11.350;2023-04-09T08:54:16;11.20;50.00
11140;DHT22;5624;49.388;11.350;2023-04-09T08:56:45;12.00;49.90
11140;DHT22;5624;49.388;11.350;2023-04-09T08:59:14;12.30;46.90
11140;DHT22;5624;49.388;11.350;2023-04-09T09:01:40;12.90;46.20
11140;DHT22;5624;49.388;11.350;2023-04-09T09:04:07;13.30;47.10
11140;DHT22;5624;49.388;11.350;2023-04-09T09:06:39;13.50;45.20
11140;DHT22;5624;49.388;11.350;2023-04-09T09:09:14;13.20;48.60
11140;DHT22;5624;49.388;11.350;2023-04-09T09:11:47;13.40;47.40
11140;DHT22;5624;49.388;11.350;2023-04-09T09:14:18;13.60;45.90
11140;DHT22;5624;49.388;11.350;2023-04-09T09:17:04;13.30;44.60
11140;DHT22;5624;49.388;11.350;2023-04-09T09:19:32;12.40;46.80
11140;DHT22;5624;49.388;11.350;2023-04-09T09:22:02;11.80;48.40
11140;DHT22;5624;49.388;11.350;2023-04-09T09:24:29;11.80;48.10
11140;DHT22;5624;49.388;11.350;2023-04-09T09:26:55;12.20;49.50
11140;DHT22;5624;49.388;11.350;2023-04-09T09:29:21;12.90;47.80
11140;DHT22;5624;49.388;11.350;2023-04-09T09:31:49;13.90;47.80
11140;DHT22;5624;49.388;11.350;2023-04-09T09:34:16;15.00;43.00
11140;DHT22;5624;49.388;11.350;2023-04-09T09:36:42;15.00;44.40
11140;DHT22;5624;49.388;11.350;2023-04-09T09:39:08;14.20;44.30
11140;DHT22;5624;49.388;11.350;2023-04-09T09:41:38;14.20;44.00
11140;DHT22;5624;49.388;11.350;2023-04-09T09:44:05;13.60;44.90
11140;DHT22;5624;49.388;11.350;2023-04-09T09:46:40;13.00;45.80
11140;DHT22;5624;49.388;11.350;2023-04-09T09:49:09;12.90;46.10
11140;DHT22;5624;49.388;11.350;2023-04-09T09:51:39;12.80;47.10
11140;DHT22;5624;49.388;11.350;2023-04-09T09:54:06;12.90;46.80
11140;DHT22;5624;49.388;11.350;2023-04-09T09:56:36;14.10;48.70
11140;DHT22;5624;49.388;11.350;2023-04-09T09:59:17;15.00;42.20
11140;DHT22;5624;49.388;11.350;2023-04-09T10:01:45;14.70;43.50
11140;DHT22;5624;49.388;11.350;2023-04-09T10:04:14;15.00;42.50
11140;DHT22;5624;49.388;11.350;2023-04-09T10:06:44;15.70;42.30
11140;DHT22;5624;49.388;11.350;2023-04-09T10:09:10;16.10;39.60
11140;DHT22;5624;49.388;11.350;2023-04-09T10:11:37;15.60;39.10
11140;DHT22;5624;49.388;11.350;2023-04-09T10:14:03;15.10;37.10
11140;DHT22;5624;49.388;11.350;2023-04-09T10:16:30;13.60;39.60
11140;DHT22;5624;49.388;11.350;2023-04-09T10:18:56;12.60;41.40
11140;DHT22;5624;49.388;11.350;2023-04-09T10:21:46;12.00;43.40
11140;DHT22;5624;49.388;11.350;2023-04-09T10:24:17;12.00;45.70
11140;DHT22;5624;49.388;11.350;2023-04-09T10:26:43;12.10;42.90
11140;DHT22;5624;49.388;11.350;2023-04-09T10:29:14;12.10;43.00
11140;DHT22;5624;49.388;11.350;2023-04-09T10:34:20;11.70;43.30
11140;DHT22;5624;49.388;11.350;2023-04-09T10:36:50;11.70;44.60
11140;DHT22;5624;49.388;11.350;2023-04-09T10:39:18;11.50;44.40
11140;DHT22;5624;49.388;11.350;2023-04-09T10:41:45;11.80;43.40
11140;DHT22;5624;49.388;11.350;2023-04-09T10:44:26;12.10;44.90
11140;DHT22;5624;49.388;11.350;2023-04-09T10:46:55;12.00;45.00
11140;DHT22;5624;49.388;11.350;2023-04-09T10:49:24;12.20;43.00
11140;DHT22;5624;49.388;11.350;2023-04-09T10:52:08;12.40;43.30
11140;DHT22;5624;49.388;11.350;2023-04-09T10:54:38;12.60;43.10
11140;DHT22;5624;49.388;11.350;2023-04-09T10:59:52;12.70;41.20
11140;DHT22;5624;49.388;11.350;2023-04-09T11:05:24;12.20;42.90
11140;DHT22;5624;49.388;11.350;2023-04-09T11:10:29;12.70;41.20
11140;DHT22;5624;49.388;11.350;2023-04-09T11:12:55;13.40;40.10
11140;DHT22;5624;49.388;11.350;2023-04-09T11:15:22;14.00;39.60
11140;DHT22;5624;49.388;11.350;2023-04-09T11:17:48;14.60;38.60
11140;DHT22;5624;49.388;11.350;2023-04-09T11:20:16;14.40;39.40
11140;DHT22;5624;49.388;11.350;2023-04-09T11:22:43;14.80;37.40
11140;DHT22;5624;49.388;11.350;2023-04-09T11:25:09;14.90;38.30
11140;DHT22;5624;49.388;11.350;2023-04-09T11:27:44;14.30;36.20
11140;DHT22;5624;49.388;11.350;2023-04-09T11:30:11;13.90;37.00
11140;DHT22;5624;49.388;11.350;2023-04-09T11:32:36;13.70;40.00
11140;DHT22;5624;49.388;11.350;2023-04-09T11:35:02;13.10;39.50
11140;DHT22;5624;49.388;11.350;2023-04-09T11:37:28;12.80;41.20
11140;DHT22;5624;49.388;11.350;2023-04-09T11:39:53;12.80;41.70
11140;DHT22;5624;49.388;11.350;2023-04-09T11:42:20;12.90;40.70
11140;DHT22;5624;49.388;11.350;2023-04-09T11:44:51;13.10;43.50
11140;DHT22;5624;49.388;11.350;2023-04-09T11:47:18;13.00;41.70
11140;DHT22;5624;49.388;11.350;2023-04-09T11:49:44;12.90;42.90
11140;DHT22;5624;49.388;11.350;2023-04-09T11:52:12;12.70;41.50
11140;DHT22;5624;49.388;11.350;2023-04-09T11:54:38;12.60;41.60
11140;DHT22;5624;49.388;11.350;2023-04-09T11:57:04;12.40;43.40
11140;DHT22;5624;49.388;11.350;2023-04-09T11:59:30;12.30;42.80
11140;DHT22;5624;49.388;11.350;2023-04-09T12:01:58;12.80;44.20
11140;DHT22;5624;49.388;11.350;2023-04-09T12:04:24;13.50;42.30
11140;DHT22;5624;49.388;11.350;2023-04-09T12:06:50;13.30;42.60
11140;DHT22;5624;49.388;11.350;2023-04-09T12:09:20;13.80;43.80
11140;DHT22;5624;49.388;11.350;2023-04-09T12:11:46;14.10;41.30
11140;DHT22;5624;49.388;11.350;2023-04-09T12:14:14;14.20;41.90
11140;DHT22;5624;49.388;11.350;2023-04-09T12:16:40;14.20;42.10
11140;DHT22;5624;49.388;11.350;2023-04-09T12:19:09;13.50;41.60
11140;DHT22;5624;49.388;11.350;2023-04-09T12:21:54;13.70;41.90
11140;DHT22;5624;49.388;11.350;2023-04-09T12:24:22;13.50;43.40
11140;DHT22;5624;49.388;11.350;2023-04-09T12:26:49;13.70;44.90
11140;DHT22;5624;49.388;11.350;2023-04-09T12:29:16;13.90;42.20
11140;DHT22;5624;49.388;11.350;2023-04-09T12:31:43;14.50;42.00
11140;DHT22;5624;49.388;11.350;2023-04-09T12:34:08;14.40;43.10
11140;DHT22;5624;49.388;11.350;2023-04-09T12:36:34;14.20;42.60
11140;DHT22;5624;49.388;11.350;2023-04-09T12:39:00;13.90;42.80
11140;DHT22;5624;49.388;11.350;2023-04-09T12:41:26;12.90;43.90
11140;DHT22;5624;49.388;11.350;2023-04-09T12:43:51;12.30;46.80
11140;DHT22;5624;49.388;11.350;2023-04-09T12:46:17;12.50;46.90
11140;DHT22;5624;49.388;11.350;2023-04-09T12:48:44;12.90;47.00
11140;DHT22;5624;49.388;11.350;2023-04-09T12:51:10;13.50;45.00
11140;DHT22;5624;49.388;11.350;2023-04-09T12:53:36;13.70;43.60
11140;DHT22;5624;49.388;11.350;2023-04-09T12:56:02;13.70;43.30
11140;DHT22;5624;49.388;11.350;2023-04-09T12:58:28;13.00;41.40
11140;DHT22;5624;49.388;11.350;2023-04-09T13:00:55;13.20;44.10
11140;DHT22;5624;49.388;11.350;2023-04-09T13:03:22;13.50;42.20
11140;DHT22;5624;49.388;11.350;2023-04-09T13:05:48;13.90;42.40
11140;DHT22;5624;49.388;11.350;2023-04-09T13:08:14;14.30;44.20
11140;DHT22;5624;49.388;11.350;2023-04-09T13:10:41;14.10;40.10
11140;DHT22;5624;49.388;11.350;2023-04-09T13:13:06;13.50;40.70
11140;DHT22;5624;49.388;11.350;2023-04-09T13:15:37;13.20;42.60
11140;DHT22;5624;49.388;11.350;2023-04-09T13:18:03;12.60;45.00
11140;DHT22;5624;49.388;11.350;2023-04-09T13:20:32;12.20;46.10
11140;DHT22;5624;49.388;11.350;2023-04-09T13:22:57;12.00;47.20
11140;DHT22;5624;49.388;11.350;2023-04-09T13:25:24;11.70;45.80
11140;DHT22;5624;49.388;11.350;2023-04-09T13:27:52;11.60;46.10
11140;DHT22;5624;49.388;11.350;2023-04-09T13:30:18;12.10;46.90
11140;DHT22;5624;49.388;11.350;2023-04-09T13:32:44;12.40;46.20
11140;DHT22;5624;49.388;11.350;2023-04-09T13:35:11;12.40;45.60
11140;DHT22;5624;49.388;11.350;2023-04-09T13:37:38;12.40;46.50
11140;DHT22;5624;49.388;11.350;2023-04-09T13:40:05;12.70;44.80
11140;DHT22;5624;49.388;11.350;2023-04-09T13:42:33;13.00;43.20
11140;DHT22;5624;49.388;11.350;2023-04-09T13:44:59;13.30;46.00
11140;DHT22;5624;49.388;11.350;2023-04-09T13:47:25;13.50;41.30
11140;DHT22;5624;49.388;11.350;2023-04-09T13:49:51;13.50;40.00
11140;DHT22;5624;49.388;11.350;2023-04-09T13:52:17;13.60;41.10
11140;DHT22;5624;49.388;11.350;2023-04-09T13:54:46;13.70;40.30
11140;DHT22;5624;49.388;11.350;2023-04-09T13:57:13;13.60;38.40
11140;DHT22;5624;49.388;11.350;2023-04-09T13:59:39;13.70;39.50
11140;DHT22;5624;49.388;11.350;2023-04-09T14:02:07;13.80;40.10
11140;DHT22;5624;49.388;11.350;2023-04-09T14:04:33;13.70;39.40
11140;DHT22;5624;49.388;11.350;2023-04-09T14:06:58;13.80;41.00
11140;DHT22;5624;49.388;11.350;2023-04-09T14:09:25;13.90;39.70
11140;DHT22;5624;49.388;11.350;2023-04-09T14:11:50;13.60;39.80
11140;DHT22;5624;49.388;11.350;2023-04-09T14:14:19;13.40;39.60
11140;DHT22;5624;49.388;11.350;2023-04-09T14:16:45;13.40;40.70
11140;DHT22;5624;49.388;11.350;2023-04-09T14:19:11;13.50;43.10
11140;DHT22;5624;49.388;11.350;2023-04-09T14:21:38;13.70;40.00
11140;DHT22;5624;49.388;11.350;2023-04-09T14:24:04;13.80;40.60
11140;DHT22;5624;49.388;11.350;2023-04-09T14:26:30;13.70;41.00
11140;DHT22;5624;49.388;11.350;2023-04-09T14:28:56;13.80;41.80
11140;DHT22;5624;49.388;11.350;2023-04-09T14:31:21;13.80;40.70
11140;DHT22;5624;49.388;11.350;2023-04-09T14:33:48;13.70;41.90
11140;DHT22;5624;49.388;11.350;2023-04-09T14:36:13;13.60;43.80
11140;DHT22;5624;49.388;11.350;2023-04-09T14:38:40;13.70;40.20
11140;DHT22;5624;49.388;11.350;2023-04-09T14:41:05;13.70;41.30
11140;DHT22;5624;49.388;11.350;2023-04-09T14:43:31;13.30;41.10
11140;DHT22;5624;49.388;11.350;2023-04-09T14:45:57;13.20;41.90
11140;DHT22;5624;49.388;11.350;2023-04-09T14:48:23;13.00;42.80
11140;DHT22;5624;49.388;11.350;2023-04-09T14:50:50;13.00;42.80
11140;DHT22;5624;49.388;11.350;2023-04-09T14:53:16;13.00;43.70
11140;DHT22;5624;49.388;11.350;2023-04-09T14:55:42;13.00;43.70
11140;DHT22;5624;49.388;11.350;2023-04-09T14:58:08;13.00;43.50
11140;DHT22;5624;49.388;11.350;2023-04-09T15:00:34;12.90;42.50
11140;DHT22;5624;49.388;11.350;2023-04-09T15:03:00;12.80;42.90
11140;DHT22;5624;49.388;11.350;2023-04-09T15:05:26;12.70;43.50
11140;DHT22;5624;49.388;11.350;2023-04-09T15:07:53;12.60;43.20
11140;DHT22;5624;49.388;11.350;2023-04-09T15:10:19;12.60;44.70
11140;DHT22;5624;49.388;11.350;2023-04-09T15:12:45;12.50;45.60
11140;DHT22;5624;49.388;11.350;2023-04-09T15:15:11;12.50;44.80
11140;DHT22;5624;49.388;11.350;2023-04-09T15:17:39;12.50;44.50
11140;DHT22;5624;49.388;11.350;2023-04-09T15:20:06;12.30;45.50
11140;DHT22;5624;49.388;11.350;2023-04-09T15:22:31;12.20;45.30
11140;DHT22;5624;49.388;11.350;2023-04-09T15:24:57;11.90;46.40
11140;DHT22;5624;49.388;11.350;2023-04-09T15:27:23;11.60;47.20
11140;DHT22;5624;49.388;11.350;2023-04-09T15:29:48;11.60;47.40
11140;DHT22;5624;49.388;11.350;2023-04-09T15:32:14;11.40;47.30
11140;DHT22;5624;49.388;11.350;2023-04-09T15:34:41;11.40;47.50
11140;DHT22;5624;49.388;11.350;2023-04-09T15:37:07;11.20;48.10
11140;DHT22;5624;49.388;11.350;2023-04-09T15:39:33;11.20;48.80
11140;DHT22;5624;49.388;11.350;2023-04-09T15:41:59;11.10;49.90
11140;DHT22;5624;49.388;11.350;2023-04-09T15:44:26;11.10;49.80
11140;DHT22;5624;49.388;11.350;2023-04-09T15:46:52;11.10;49.60
11140;DHT22;5624;49.388;11.350;2023-04-09T15:49:17;11.10;50.50